createdAt,value
2019-03-04T07:24:25.179Z,10.78
2019-03-04T07:25:25.149Z,10.74
2019-03-04T07:26:25.138Z,10.81
2019-03-04T07:27:25.147Z,11.02
2019-03-04T07:28:25.118Z,11.24
2019-03-04T07:29:25.105Z,11.54
2019-03-04T07:30:25.096Z,11.55
2019-03-04T07:31:25.087Z,11.54
2019-03-04T07:32:25.093Z,11.54
2019-03-04T07:33:25.070Z,11.57
2019-03-04T07:34:25.053Z,11.46
2019-03-04T07:35:25.040Z,11.57
2019-03-04T07:36:25.036Z,11.39
2019-03-04T07:37:25.038Z,11.46
2019-03-04T07:38:25.017Z,11.39
2019-03-04T07:39:36.248Z,11.32
2019-03-04T07:40:24.986Z,11.25
2019-03-04T07:41:24.975Z,11.14
2019-03-04T07:42:24.982Z,11.14
2019-03-04T07:43:24.955Z,11.06
2019-03-04T07:44:24.946Z,11.04
2019-03-04T07:45:24.930Z,11.03
2019-03-04T07:46:24.918Z,11.02
2019-03-04T07:47:24.941Z,11.03
2019-03-04T07:48:24.896Z,10.97
2019-03-04T07:49:24.886Z,10.99
2019-03-04T07:50:24.879Z,10.99
2019-03-04T07:51:24.867Z,11.06
2019-03-04T07:52:24.857Z,11.06
2019-03-04T07:53:24.862Z,11.19
2019-03-04T07:54:24.831Z,11.25
2019-03-04T07:55:24.818Z,11.27
2019-03-04T07:56:24.807Z,11.40
2019-03-04T07:57:24.804Z,11.37
2019-03-04T07:58:25.838Z,11.40
2019-03-04T07:59:24.773Z,11.40
2019-03-04T08:00:24.763Z,11.24
2019-03-04T08:01:24.753Z,11.19
2019-03-04T08:02:24.738Z,11.11
2019-03-04T08:03:24.751Z,11.09
2019-03-04T08:04:24.719Z,11.17
2019-03-04T08:05:24.767Z,11.14
2019-03-04T08:06:24.695Z,11.22
2019-03-04T08:07:24.688Z,11.32
2019-03-04T08:08:24.694Z,11.39
2019-03-04T08:09:24.660Z,11.37
2019-03-04T08:10:24.649Z,11.36
2019-03-04T08:11:24.642Z,11.43
2019-03-04T08:12:24.632Z,11.52
2019-03-04T08:13:24.634Z,11.58
2019-03-04T08:14:24.610Z,11.75
2019-03-04T08:15:24.590Z,11.75
2019-03-04T08:16:24.581Z,11.80
2019-03-04T08:17:24.581Z,11.73
2019-03-04T08:18:24.587Z,11.76
2019-03-04T08:19:24.545Z,11.73
2019-03-04T08:20:24.535Z,11.70
2019-03-04T08:21:24.526Z,11.72
2019-03-04T08:22:24.561Z,11.73
2019-03-04T08:23:24.524Z,11.60
2019-03-04T08:24:24.499Z,11.55
2019-03-04T08:25:24.482Z,11.58
2019-03-04T08:26:24.471Z,11.62
2019-03-04T08:27:24.481Z,11.61
2019-03-04T08:28:24.468Z,11.57
2019-03-04T08:29:24.435Z,11.58
2019-03-04T08:30:24.427Z,11.42
2019-03-04T08:31:24.410Z,11.40
2019-03-04T08:32:24.397Z,11.42
2019-03-04T08:33:24.421Z,11.40
2019-03-04T08:34:30.963Z,11.33
2019-03-04T08:35:25.362Z,11.39
2019-03-04T08:36:24.355Z,11.42
2019-03-04T08:37:24.340Z,11.73
2019-03-04T08:38:24.349Z,12.19
2019-03-04T08:39:24.320Z,12.54
2019-03-04T08:40:24.318Z,13.01
2019-03-04T08:41:24.295Z,13.20
2019-03-04T08:42:24.285Z,13.48
2019-03-04T08:43:24.311Z,13.67
2019-03-04T08:44:24.263Z,13.71
2019-03-04T08:45:24.275Z,13.92
2019-03-04T08:46:24.240Z,14.25
2019-03-04T08:47:24.237Z,14.46
2019-03-04T08:48:24.242Z,14.51
2019-03-04T08:49:24.210Z,14.64
2019-03-04T08:50:24.201Z,14.89
2019-03-04T08:51:24.190Z,14.99
2019-03-04T08:52:24.193Z,15.31
2019-03-04T08:53:24.186Z,15.47
2019-03-04T08:54:24.217Z,15.65
2019-03-04T08:55:24.150Z,15.65
2019-03-04T08:56:24.137Z,15.62
2019-03-04T08:57:24.121Z,15.51
2019-03-04T08:58:24.153Z,15.35
2019-03-04T08:59:24.098Z,15.57
2019-03-04T09:00:24.136Z,16.27
2019-03-04T09:01:24.085Z,16.70
2019-03-04T09:02:24.070Z,16.53
2019-03-04T09:03:24.099Z,16.52
2019-03-04T09:04:24.043Z,16.28
2019-03-04T09:05:24.032Z,15.53
2019-03-04T09:06:24.021Z,15.19
2019-03-04T09:07:24.017Z,15.20
2019-03-04T09:08:24.029Z,15.17
2019-03-04T09:09:23.997Z,14.99
2019-03-04T09:10:23.977Z,15.19
2019-03-04T09:11:23.968Z,15.60
2019-03-04T09:12:23.965Z,15.07
2019-03-04T09:13:23.964Z,14.25
2019-03-04T09:14:23.936Z,13.75
2019-03-04T09:15:23.928Z,13.55
2019-03-04T09:16:23.914Z,13.57
2019-03-04T09:17:23.903Z,13.28
2019-03-04T09:18:23.927Z,13.20
2019-03-04T09:19:23.885Z,13.04
2019-03-04T09:20:23.890Z,13.05
2019-03-04T09:21:23.865Z,13.00
2019-03-04T09:22:23.849Z,12.95
2019-03-04T09:23:23.863Z,12.86
2019-03-04T09:24:23.831Z,12.74
2019-03-04T09:25:30.390Z,12.71
2019-03-04T09:26:24.820Z,12.68
2019-03-04T09:27:23.806Z,12.67
2019-03-04T09:28:23.802Z,12.65
2019-03-04T09:29:23.795Z,12.53
2019-03-04T09:30:23.768Z,12.52
2019-03-04T09:31:23.758Z,12.45
2019-03-04T09:32:23.815Z,12.52
2019-03-04T09:33:23.849Z,12.53
2019-03-04T09:34:23.724Z,12.49
2019-03-04T09:35:23.708Z,12.50
2019-03-04T09:36:23.711Z,12.53
2019-03-04T09:37:23.695Z,12.62
2019-03-04T09:38:23.681Z,12.57
2019-03-04T09:39:23.689Z,12.68
2019-03-04T09:40:23.656Z,12.67
2019-03-04T09:41:23.642Z,12.77
2019-03-04T09:42:23.637Z,12.95
2019-03-04T09:43:23.620Z,12.79
2019-03-04T09:44:23.640Z,12.93
2019-03-04T09:45:23.623Z,12.96
2019-03-04T09:46:23.593Z,13.03
2019-03-04T09:47:23.577Z,13.05
2019-03-04T09:48:23.563Z,13.04
2019-03-04T09:49:23.583Z,13.04
2019-03-04T09:50:23.546Z,13.04
2019-03-04T09:51:24.539Z,13.10
2019-03-04T09:52:23.533Z,13.17
2019-03-04T09:53:23.510Z,13.25
2019-03-04T09:54:23.542Z,13.30
2019-03-04T09:55:23.496Z,13.20
2019-03-04T09:56:23.474Z,13.17
2019-03-04T09:57:23.469Z,13.03
2019-03-04T09:58:23.489Z,12.87
2019-03-04T09:59:23.462Z,12.87
2019-03-04T10:00:23.436Z,12.75
2019-03-04T10:01:23.427Z,12.93
2019-03-04T10:02:23.411Z,13.07
2019-03-04T10:03:23.407Z,13.42
2019-03-04T10:04:23.406Z,13.67
2019-03-04T10:05:23.379Z,13.95
2019-03-04T10:06:23.372Z,13.77
2019-03-04T10:07:23.367Z,14.52
2019-03-04T10:08:32.605Z,14.06
2019-03-04T10:09:24.362Z,13.91
2019-03-04T10:10:23.322Z,13.99
2019-03-04T10:11:23.316Z,14.29
2019-03-04T10:12:23.304Z,14.35
2019-03-04T10:13:23.297Z,14.50
2019-03-04T10:14:23.305Z,15.87
2019-03-04T10:15:23.269Z,16.31
2019-03-04T10:16:23.255Z,15.83
2019-03-04T10:17:23.245Z,15.74
2019-03-04T10:18:23.235Z,15.54
2019-03-04T10:19:23.243Z,15.38
2019-03-04T10:20:23.216Z,16.34
2019-03-04T10:21:23.212Z,16.00
2019-03-04T10:22:23.191Z,15.35
2019-03-04T10:23:23.205Z,15.01
2019-03-04T10:24:23.197Z,14.81
2019-03-04T10:25:23.161Z,15.07
2019-03-04T10:26:23.214Z,14.94
2019-03-04T10:27:23.146Z,14.73
2019-03-04T10:28:23.129Z,14.52
2019-03-04T10:29:23.135Z,14.39
2019-03-04T10:30:23.134Z,14.24
2019-03-04T10:31:23.096Z,14.50
2019-03-04T10:32:23.085Z,14.22
2019-03-04T10:33:23.119Z,14.28
2019-03-04T10:34:23.108Z,14.10
2019-03-04T10:35:23.049Z,14.07
2019-03-04T10:36:23.045Z,14.07
2019-03-04T10:37:23.033Z,14.10
2019-03-04T10:38:23.098Z,13.88
2019-03-04T10:39:23.030Z,13.77
2019-03-04T10:40:22.997Z,13.64
2019-03-04T10:41:22.985Z,13.70
2019-03-04T10:42:22.980Z,13.64
2019-03-04T10:43:22.998Z,13.71
2019-03-04T10:44:22.972Z,14.14
2019-03-04T10:45:22.942Z,14.37
2019-03-04T10:46:22.931Z,14.28
2019-03-04T10:47:22.919Z,14.04
2019-03-04T10:48:22.916Z,13.96
2019-03-04T10:49:22.935Z,13.95
2019-03-04T10:50:22.886Z,13.87
2019-03-04T10:51:22.876Z,13.73
2019-03-04T10:52:22.865Z,13.54
2019-03-04T10:53:22.855Z,13.52
2019-03-04T10:54:22.861Z,13.48
2019-03-04T10:55:22.837Z,13.29
2019-03-04T10:56:22.846Z,13.23
2019-03-04T10:57:22.819Z,13.17
2019-03-04T10:58:22.804Z,13.17
2019-03-04T10:59:22.816Z,13.03
2019-03-04T11:00:22.804Z,12.90
2019-03-04T11:01:30.155Z,12.90
2019-03-04T11:02:23.754Z,12.93
2019-03-04T11:03:22.745Z,13.01
2019-03-04T11:04:22.755Z,13.04
2019-03-04T11:05:22.737Z,13.07
2019-03-04T11:06:22.757Z,13.12
2019-03-04T11:07:22.703Z,13.12
2019-03-04T11:08:22.714Z,13.22
2019-03-04T11:09:22.726Z,13.07
2019-03-04T11:10:22.674Z,13.12
2019-03-04T11:11:29.560Z,13.07
2019-03-04T11:12:23.647Z,13.10
2019-03-04T11:13:22.676Z,12.97
2019-03-04T11:14:22.627Z,13.00
2019-03-04T11:15:22.931Z,12.97
2019-03-04T11:16:22.604Z,13.00
2019-03-04T11:17:22.589Z,12.95
2019-03-04T11:18:22.595Z,12.90
2019-03-04T11:19:22.570Z,12.95
2019-03-04T11:20:22.578Z,13.00
2019-03-04T11:21:22.546Z,12.93
2019-03-04T11:22:22.535Z,12.86
2019-03-04T11:23:22.537Z,12.74
2019-03-04T11:24:22.534Z,12.75
2019-03-04T11:25:22.642Z,12.85
2019-03-04T11:26:22.493Z,12.75
2019-03-04T11:27:22.480Z,12.78
2019-03-04T11:28:22.484Z,12.68
2019-03-04T11:29:22.458Z,12.68
2019-03-04T11:30:22.528Z,12.57
2019-03-04T11:31:22.447Z,12.59
2019-03-04T11:32:22.429Z,12.67
2019-03-04T11:33:22.414Z,12.60
2019-03-04T11:34:22.405Z,12.64
2019-03-04T11:35:22.417Z,12.47
2019-03-04T11:36:22.397Z,12.57
2019-03-04T11:37:22.375Z,12.54
2019-03-04T11:38:22.360Z,12.54
2019-03-04T11:39:22.348Z,12.54
2019-03-04T11:40:22.357Z,12.46
2019-03-04T11:41:22.331Z,12.42
2019-03-04T11:42:22.334Z,12.32
2019-03-04T11:43:22.304Z,12.31
2019-03-04T11:44:22.292Z,12.28
2019-03-04T11:45:22.301Z,12.21
2019-03-04T11:46:22.270Z,12.23
2019-03-04T11:47:22.264Z,12.23
2019-03-04T11:48:22.252Z,12.21
2019-03-04T11:49:22.276Z,12.24
2019-03-04T11:50:22.248Z,12.21
2019-03-04T11:51:22.215Z,12.02
2019-03-04T11:52:22.206Z,11.79
2019-03-04T11:53:22.198Z,11.60
2019-03-04T11:54:22.194Z,11.40
2019-03-04T11:55:22.202Z,11.09
2019-03-04T11:56:22.157Z,10.89
2019-03-04T11:57:22.170Z,10.66
2019-03-04T11:58:22.142Z,10.51
2019-03-04T11:59:22.132Z,10.27
2019-03-04T12:00:22.130Z,10.02
2019-03-04T12:01:22.105Z,9.86
2019-03-04T12:02:22.094Z,9.93
2019-03-04T12:03:22.082Z,9.83
2019-03-04T12:04:22.067Z,9.68
2019-03-04T12:05:22.085Z,9.50
2019-03-04T12:06:22.066Z,9.32
2019-03-04T12:07:22.034Z,9.32
2019-03-04T12:08:22.022Z,9.17
2019-03-04T12:09:22.013Z,9.14
2019-03-04T12:10:22.026Z,9.02
2019-03-04T12:11:22.010Z,8.87
2019-03-04T12:12:21.979Z,8.62
2019-03-04T12:13:21.966Z,8.62
2019-03-04T12:14:21.954Z,8.63
2019-03-04T12:15:21.966Z,8.68
2019-03-04T12:16:21.937Z,8.59
2019-03-04T12:17:21.935Z,8.61
2019-03-04T12:18:21.925Z,8.62
2019-03-04T12:19:21.898Z,8.62
2019-03-04T12:20:21.908Z,8.77
2019-03-04T12:21:21.878Z,8.70
2019-03-04T12:22:21.869Z,8.76
2019-03-04T12:23:21.859Z,8.83
2019-03-04T12:24:21.864Z,8.71
2019-03-04T12:25:21.868Z,8.63
2019-03-04T12:26:21.831Z,8.62
2019-03-04T12:27:21.812Z,8.61
2019-03-04T12:28:21.804Z,8.58
2019-03-04T12:29:21.790Z,8.61
2019-03-04T12:30:21.813Z,8.70
2019-03-04T12:31:21.770Z,8.65
2019-03-04T12:32:21.758Z,8.59
2019-03-04T12:33:21.757Z,8.61
2019-03-04T12:34:24.650Z,8.76
2019-03-04T12:35:21.747Z,8.71
2019-03-04T12:36:21.718Z,8.74
2019-03-04T12:37:21.706Z,8.86
2019-03-04T12:38:21.694Z,8.89
2019-03-04T12:39:21.683Z,8.81
2019-03-04T12:40:21.693Z,8.94
2019-03-04T12:41:21.730Z,8.87
2019-03-04T12:42:21.658Z,8.95
2019-03-04T12:43:21.639Z,8.87
2019-03-04T12:44:21.628Z,8.94
2019-03-04T12:45:21.639Z,8.89
2019-03-04T12:46:21.617Z,8.98
2019-03-04T12:47:21.619Z,8.98
2019-03-04T12:48:21.587Z,9.02
2019-03-04T12:49:21.574Z,8.96
2019-03-04T12:50:21.596Z,9.02
2019-03-04T12:51:23.488Z,9.11
2019-03-04T12:52:23.246Z,9.17
2019-03-04T12:53:21.544Z,9.18
2019-03-04T12:54:21.517Z,9.20
2019-03-04T12:55:21.558Z,9.38
2019-03-04T12:56:21.496Z,9.36
2019-03-04T12:57:21.493Z,9.51
2019-03-04T12:58:21.482Z,9.56
2019-03-04T12:59:21.479Z,9.86
2019-03-04T13:00:21.459Z,9.90
2019-03-04T13:01:21.462Z,9.96
2019-03-04T13:02:21.433Z,9.87
2019-03-04T13:03:21.422Z,9.89
2019-03-04T13:04:21.416Z,9.89
2019-03-04T13:05:21.412Z,9.96
2019-03-04T13:06:21.420Z,10.08
2019-03-04T13:07:21.386Z,10.02
2019-03-04T13:08:21.367Z,10.05
2019-03-04T13:09:21.357Z,10.07
2019-03-04T13:10:21.354Z,10.12
2019-03-04T13:11:21.353Z,10.23
2019-03-04T13:12:21.320Z,10.29
2019-03-04T13:13:21.310Z,10.29
2019-03-04T13:14:21.302Z,10.23
2019-03-04T13:15:21.301Z,10.17
2019-03-04T13:16:21.295Z,10.01
2019-03-04T13:17:21.266Z,10.12
2019-03-04T13:18:21.253Z,10.14
2019-03-04T13:19:21.240Z,10.23
2019-03-04T13:20:21.229Z,10.20
2019-03-04T13:21:21.254Z,10.30
2019-03-04T13:22:21.209Z,10.59
2019-03-04T13:23:21.196Z,10.73
2019-03-04T13:24:21.184Z,10.82
2019-03-04T13:25:21.172Z,10.92
2019-03-04T13:26:21.185Z,11.09
2019-03-04T13:27:24.036Z,10.81
2019-03-04T13:28:21.142Z,10.73
2019-03-04T13:29:21.127Z,10.68
2019-03-04T13:30:21.116Z,10.70
2019-03-04T13:31:21.125Z,10.66
2019-03-04T13:32:21.097Z,10.70
2019-03-04T13:33:21.099Z,10.92
2019-03-04T13:34:21.083Z,10.79
2019-03-04T13:35:24.574Z,10.63
2019-03-04T13:36:21.069Z,10.56
2019-03-04T13:37:21.038Z,10.48
2019-03-04T13:38:21.027Z,10.22
2019-03-04T13:39:21.028Z,10.14
2019-03-04T13:40:21.043Z,10.15
2019-03-04T13:41:21.014Z,10.23
2019-03-04T13:42:20.990Z,10.17
2019-03-04T13:43:20.971Z,10.12
2019-03-04T13:44:20.974Z,10.08
2019-03-04T13:45:20.954Z,9.94
2019-03-04T13:46:20.974Z,9.97
2019-03-04T13:47:20.925Z,9.97
2019-03-04T13:48:20.913Z,9.94
2019-03-04T13:49:20.903Z,9.97
2019-03-04T13:50:20.904Z,9.93
2019-03-04T13:51:20.916Z,10.05
2019-03-04T13:52:20.868Z,10.01
2019-03-04T13:53:20.857Z,10.01
2019-03-04T13:54:20.846Z,10.04
2019-03-04T13:55:20.836Z,10.11
2019-03-04T13:56:20.848Z,10.22
2019-03-04T13:57:20.835Z,10.15
2019-03-04T13:58:20.803Z,10.27
2019-03-04T13:59:20.798Z,10.23
2019-03-04T14:00:20.782Z,10.23
2019-03-04T14:01:20.798Z,10.22
2019-03-04T14:02:20.763Z,10.20
2019-03-04T14:03:20.773Z,10.17
2019-03-04T14:04:20.743Z,10.14
2019-03-04T14:05:20.730Z,10.14
2019-03-04T14:06:20.746Z,10.01
2019-03-04T14:07:20.705Z,10.17
2019-03-04T14:08:20.701Z,10.18
2019-03-04T14:09:20.712Z,10.05
2019-03-04T14:10:20.670Z,10.01
2019-03-04T14:11:20.682Z,10.05
2019-03-04T14:12:20.648Z,10.17
2019-03-04T14:13:20.640Z,10.27
2019-03-04T14:14:20.631Z,10.27
2019-03-04T14:15:20.613Z,10.34
2019-03-04T14:16:20.629Z,10.30
2019-03-04T14:17:20.593Z,10.29
2019-03-04T14:18:20.633Z,10.38
2019-03-04T14:19:20.576Z,10.56
2019-03-04T14:20:20.585Z,10.63
2019-03-04T14:21:20.585Z,10.64
2019-03-04T14:22:20.545Z,10.76
2019-03-04T14:23:20.538Z,10.78
2019-03-04T14:24:20.514Z,10.73
2019-03-04T14:25:20.513Z,10.71
2019-03-04T14:26:20.526Z,10.79
2019-03-04T14:27:20.481Z,10.79
2019-03-04T14:28:20.471Z,10.74
2019-03-04T14:29:20.466Z,10.68
2019-03-04T14:30:20.454Z,10.64
2019-03-04T14:31:20.460Z,10.68
2019-03-04T14:32:20.451Z,10.73
2019-03-04T14:33:20.416Z,10.79
2019-03-04T14:34:20.404Z,10.91
2019-03-04T14:35:20.396Z,10.89
2019-03-04T14:36:20.417Z,10.86
2019-03-04T14:37:21.879Z,10.84
2019-03-04T14:38:20.385Z,10.89
2019-03-04T14:39:20.351Z,10.91
2019-03-04T14:40:20.342Z,10.91
2019-03-04T14:41:20.325Z,10.84
2019-03-04T14:42:20.333Z,10.84
2019-03-04T14:43:20.310Z,10.81
2019-03-04T14:44:20.297Z,10.81
2019-03-04T14:45:20.291Z,10.85
2019-03-04T14:46:20.276Z,10.82
2019-03-04T14:47:20.296Z,10.73
2019-03-04T14:48:20.251Z,10.63
2019-03-04T14:49:20.249Z,10.67
2019-03-04T14:50:20.250Z,10.66
2019-03-04T14:51:20.221Z,10.73
2019-03-04T14:52:20.223Z,10.74
2019-03-04T14:53:20.203Z,10.88
2019-03-04T14:54:20.185Z,10.78
2019-03-04T14:55:20.180Z,10.73
2019-03-04T14:56:22.555Z,10.74
2019-03-04T14:57:20.177Z,10.64
2019-03-04T14:58:20.155Z,10.67
2019-03-04T14:59:20.129Z,10.48
2019-03-04T15:00:20.120Z,10.52
2019-03-04T15:01:20.122Z,10.45
2019-03-04T15:02:20.118Z,10.48
2019-03-04T15:03:23.620Z,10.47
2019-03-04T15:04:20.088Z,10.44
2019-03-04T15:05:20.063Z,10.52
2019-03-04T15:06:20.055Z,10.59
2019-03-04T15:07:20.067Z,10.55
2019-03-04T15:08:20.028Z,10.59
2019-03-04T15:09:20.020Z,10.51
2019-03-04T15:10:20.007Z,10.59
2019-03-04T15:11:19.999Z,10.67
2019-03-04T15:12:20.003Z,10.70
2019-03-04T15:13:19.987Z,10.70
2019-03-04T15:14:19.975Z,10.55
2019-03-04T15:15:19.951Z,10.56
2019-03-04T15:16:19.941Z,10.56
2019-03-04T15:17:19.954Z,10.61
2019-03-04T15:18:19.935Z,10.64
2019-03-04T15:19:19.906Z,10.59
2019-03-04T15:20:19.899Z,10.52
2019-03-04T15:21:19.889Z,10.45
2019-03-04T15:22:19.894Z,10.47
2019-03-04T15:23:19.872Z,10.51
2019-03-04T15:24:19.866Z,10.47
2019-03-04T15:25:21.099Z,10.56
2019-03-04T15:26:19.831Z,10.56
2019-03-04T15:27:19.839Z,10.53
2019-03-04T15:28:19.810Z,10.56
2019-03-04T15:29:19.802Z,10.55
2019-03-04T15:30:19.824Z,10.55
2019-03-04T15:31:19.775Z,10.53
2019-03-04T15:32:19.787Z,10.55
2019-03-04T15:33:19.786Z,10.63
2019-03-04T15:34:19.754Z,10.63
2019-03-04T15:35:19.743Z,10.63
2019-03-04T15:36:19.733Z,10.64
2019-03-04T15:37:19.734Z,10.55
2019-03-04T15:38:19.700Z,10.60
2019-03-04T15:39:23.021Z,10.56
2019-03-04T15:40:19.677Z,10.53
2019-03-04T15:41:19.683Z,10.52
2019-03-04T15:42:19.683Z,10.53
2019-03-04T15:43:19.650Z,10.53
2019-03-04T15:44:19.635Z,10.59
2019-03-04T15:45:19.621Z,10.63
2019-03-04T15:46:19.613Z,10.60
2019-03-04T15:47:19.625Z,10.63
2019-03-04T15:48:19.606Z,10.68
2019-03-04T15:49:19.602Z,10.73
2019-03-04T15:50:19.565Z,10.68
2019-03-04T15:51:19.555Z,10.66
2019-03-04T15:52:19.563Z,10.68
2019-03-04T15:53:19.537Z,10.64
2019-03-04T15:54:19.536Z,10.53
2019-03-04T15:55:19.520Z,10.60
2019-03-04T15:56:19.500Z,10.67
2019-03-04T15:57:19.507Z,10.60
2019-03-04T15:58:19.479Z,10.64
2019-03-04T15:59:19.468Z,10.70
2019-03-04T16:00:19.461Z,10.64
2019-03-04T16:01:19.448Z,10.67
2019-03-04T16:02:19.450Z,10.71
2019-03-04T16:03:19.422Z,10.71
2019-03-04T16:04:19.410Z,10.74
2019-03-04T16:05:19.422Z,10.73
2019-03-04T16:06:19.389Z,10.73
2019-03-04T16:07:19.421Z,10.73
2019-03-04T16:08:19.364Z,10.73
2019-03-04T16:09:19.353Z,10.59
2019-03-04T16:10:19.345Z,10.47
2019-03-04T16:11:19.337Z,10.42
2019-03-04T16:12:19.344Z,10.47
2019-03-04T16:13:19.317Z,10.53
2019-03-04T16:14:19.298Z,10.44
2019-03-04T16:15:19.288Z,10.34
2019-03-04T16:16:19.277Z,10.36
2019-03-04T16:17:19.479Z,10.36
2019-03-04T16:18:19.256Z,10.44
2019-03-04T16:19:19.260Z,10.51
2019-03-04T16:20:19.232Z,10.33
2019-03-04T16:21:19.222Z,10.51
2019-03-04T16:22:19.215Z,10.52
2019-03-04T16:23:19.222Z,10.45
2019-03-04T16:24:19.192Z,10.48
2019-03-04T16:25:19.177Z,10.44
2019-03-04T16:26:19.169Z,10.47
2019-03-04T16:27:19.153Z,10.53
2019-03-04T16:28:19.165Z,10.53
2019-03-04T16:29:19.138Z,10.53
2019-03-04T16:30:19.128Z,10.45
2019-03-04T16:31:19.118Z,10.44
2019-03-04T16:32:19.104Z,10.52
2019-03-04T16:33:19.121Z,10.44
2019-03-04T16:34:19.078Z,10.45
2019-03-04T16:35:19.074Z,10.47
2019-03-04T16:36:19.058Z,10.42
2019-03-04T16:37:19.054Z,10.51
2019-03-04T16:38:19.053Z,10.51
2019-03-04T16:39:19.032Z,10.44
2019-03-04T16:40:19.014Z,10.44
2019-03-04T16:41:19.017Z,10.38
2019-03-04T16:42:18.991Z,10.41
2019-03-04T16:43:19.014Z,10.36
2019-03-04T16:44:18.974Z,10.29
2019-03-04T16:45:18.968Z,10.30
2019-03-04T16:46:18.950Z,10.26
2019-03-04T16:47:18.967Z,10.26
2019-03-04T16:48:18.946Z,10.25
2019-03-04T16:49:18.923Z,10.20
2019-03-04T16:50:18.906Z,10.25
2019-03-04T16:51:18.895Z,10.25
2019-03-04T16:52:18.889Z,10.11
2019-03-04T16:53:18.891Z,10.20
2019-03-04T16:54:18.862Z,10.20
2019-03-04T16:55:18.859Z,10.14
2019-03-04T16:56:18.842Z,10.12
2019-03-04T16:57:18.828Z,10.12
2019-03-04T16:58:18.839Z,9.99
2019-03-04T16:59:18.812Z,10.04
2019-03-04T17:00:18.822Z,10.04
2019-03-04T17:01:18.803Z,10.01
2019-03-04T17:02:18.777Z,10.01
2019-03-04T17:03:18.785Z,9.94
2019-03-04T17:04:18.757Z,9.93
2019-03-04T17:05:18.748Z,9.90
2019-03-04T17:06:18.732Z,9.87
2019-03-04T17:07:18.723Z,9.91
2019-03-04T17:08:18.828Z,9.84
2019-03-04T17:09:18.703Z,9.76
2019-03-04T17:10:18.693Z,9.87
2019-03-04T17:11:18.701Z,9.93
2019-03-04T17:12:18.668Z,9.84
2019-03-04T17:13:18.677Z,9.84
2019-03-04T17:14:18.650Z,9.74
2019-03-04T17:15:18.639Z,9.78
2019-03-04T17:16:18.623Z,9.76
2019-03-04T17:17:18.616Z,9.76
2019-03-04T17:18:18.628Z,9.89
2019-03-04T17:19:18.590Z,9.79
2019-03-04T17:20:18.587Z,9.78
2019-03-04T17:21:18.568Z,9.78
2019-03-04T17:22:18.559Z,9.79
2019-03-04T17:23:18.574Z,9.71
2019-03-04T17:24:18.535Z,9.76
2019-03-04T17:25:18.525Z,9.65
2019-03-04T17:26:18.517Z,9.65
2019-03-04T17:27:18.506Z,9.68
2019-03-04T17:28:18.520Z,9.69
2019-03-04T17:29:18.490Z,9.69
2019-03-04T17:30:18.472Z,9.65
2019-03-04T17:31:18.462Z,9.56
2019-03-04T17:32:18.451Z,9.61
2019-03-04T17:33:18.468Z,9.65
2019-03-04T17:34:18.432Z,9.65
2019-03-04T17:35:18.432Z,9.65
2019-03-04T17:36:18.406Z,9.65
2019-03-04T17:37:18.394Z,9.65
2019-03-04T17:38:18.403Z,9.68
2019-03-04T17:39:18.376Z,9.60
2019-03-04T17:40:18.408Z,9.66
2019-03-04T17:41:18.360Z,9.64
2019-03-04T17:42:18.343Z,9.57
2019-03-04T17:43:18.372Z,9.57
2019-03-04T17:44:18.324Z,9.46
2019-03-04T17:45:18.307Z,9.56
2019-03-04T17:46:18.315Z,9.57
2019-03-04T17:47:18.294Z,9.65
2019-03-04T17:48:18.305Z,9.66
2019-03-04T17:49:18.268Z,9.64
2019-03-04T17:50:18.257Z,9.68
2019-03-04T17:51:18.243Z,9.68
2019-03-04T17:52:18.258Z,9.68
2019-03-04T17:53:18.243Z,9.66
2019-03-04T17:54:18.211Z,9.68
2019-03-04T17:55:18.199Z,9.74
2019-03-04T17:56:18.189Z,9.69
2019-03-04T17:57:18.178Z,9.71
2019-03-04T17:58:18.231Z,9.69
2019-03-04T17:59:18.156Z,9.68
2019-03-04T18:00:18.145Z,9.66
2019-03-04T18:01:18.136Z,9.65
2019-03-04T18:02:18.125Z,9.71
2019-03-04T18:03:18.122Z,9.60
2019-03-04T18:04:18.135Z,9.58
2019-03-04T18:05:18.162Z,9.51
2019-03-04T18:06:18.080Z,9.58
2019-03-04T18:07:18.071Z,9.43
2019-03-04T18:08:18.066Z,9.51
2019-03-04T18:09:18.068Z,9.42
2019-03-04T18:10:18.049Z,9.40
2019-03-04T18:11:18.027Z,9.40
2019-03-04T18:12:18.015Z,9.43
2019-03-04T18:13:18.007Z,9.47
2019-03-04T18:14:18.017Z,9.33
2019-03-04T18:15:17.987Z,9.33
2019-03-04T18:16:17.983Z,9.32
2019-03-04T18:17:17.962Z,9.39
2019-03-04T18:18:17.958Z,9.39
2019-03-04T18:19:17.961Z,9.40
2019-03-04T18:20:17.932Z,9.46
2019-03-04T18:21:17.927Z,9.40
2019-03-04T18:22:17.922Z,9.50
2019-03-04T18:23:17.912Z,9.48
2019-03-04T18:24:17.921Z,9.48
2019-03-04T18:25:17.933Z,9.33
2019-03-04T18:26:17.867Z,9.35
2019-03-04T18:27:17.864Z,9.33
2019-03-04T18:28:17.849Z,9.35
2019-03-04T18:29:17.866Z,9.36
2019-03-04T18:30:17.823Z,9.35
2019-03-04T18:31:17.811Z,9.32
2019-03-04T18:32:17.801Z,9.28
2019-03-04T18:33:17.790Z,9.36
2019-03-04T18:34:17.811Z,9.35
2019-03-04T18:35:17.788Z,9.35
2019-03-04T18:36:17.765Z,9.14
2019-03-04T18:37:17.749Z,9.21
2019-03-04T18:38:17.737Z,9.26
2019-03-04T18:39:17.745Z,9.21
2019-03-04T18:40:17.716Z,9.31
2019-03-04T18:41:17.704Z,9.21
2019-03-04T18:42:17.699Z,9.23
2019-03-04T18:43:17.701Z,9.33
2019-03-04T18:44:17.694Z,9.20
2019-03-04T18:45:17.670Z,9.24
2019-03-04T18:46:17.664Z,9.18
2019-03-04T18:47:17.639Z,9.23
2019-03-04T18:48:17.671Z,9.23
2019-03-04T18:49:17.641Z,9.23
2019-03-04T18:50:17.615Z,9.21
2019-03-04T18:51:17.608Z,9.21
2019-03-04T18:52:17.587Z,9.17
2019-03-04T18:53:17.574Z,9.18
2019-03-04T18:54:17.601Z,9.17
2019-03-04T18:55:17.564Z,9.11
2019-03-04T18:56:21.914Z,9.13
2019-03-04T18:57:17.537Z,9.10
2019-03-04T18:58:17.522Z,8.99
2019-03-04T18:59:17.538Z,9.15
2019-03-04T19:00:17.500Z,9.11
2019-03-04T19:01:17.499Z,8.99
2019-03-04T19:02:17.488Z,9.04
2019-03-04T19:03:17.471Z,9.05
2019-03-04T19:04:17.479Z,9.11
2019-03-04T19:05:17.448Z,9.05
2019-03-04T19:06:17.434Z,8.98
2019-03-04T19:07:17.428Z,9.02
2019-03-04T19:08:17.429Z,9.01
2019-03-04T19:09:17.423Z,8.99
2019-03-04T19:10:17.398Z,8.99
2019-03-04T19:11:17.381Z,8.99
2019-03-04T19:12:17.371Z,9.02
2019-03-04T19:13:17.363Z,9.01
2019-03-04T19:14:17.381Z,8.96
2019-03-04T19:15:17.353Z,8.87
2019-03-04T19:16:17.329Z,8.95
2019-03-04T19:17:17.319Z,9.02
2019-03-04T19:18:17.307Z,9.01
2019-03-04T19:19:17.318Z,8.95
2019-03-04T19:20:17.294Z,9.10
2019-03-04T19:21:17.281Z,9.04
2019-03-04T19:22:17.261Z,9.01
2019-03-04T19:23:17.251Z,8.98
2019-03-04T19:24:17.258Z,8.95
2019-03-04T19:25:17.230Z,8.99
2019-03-04T19:26:17.229Z,8.91
2019-03-04T19:27:17.214Z,8.81
2019-03-04T19:28:17.197Z,8.96
2019-03-04T19:29:17.210Z,8.91
2019-03-04T19:30:17.177Z,8.83
2019-03-04T19:31:17.165Z,8.91
2019-03-04T19:32:17.168Z,8.84
2019-03-04T19:33:17.156Z,8.86
2019-03-04T19:34:17.399Z,8.87
2019-03-04T19:35:17.125Z,8.87
2019-03-04T19:36:17.110Z,8.87
2019-03-04T19:37:17.105Z,8.91
2019-03-04T19:38:17.101Z,8.92
2019-03-04T19:39:17.123Z,8.86
2019-03-04T19:40:17.084Z,8.94
2019-03-04T19:41:17.057Z,8.95
2019-03-04T19:42:17.049Z,8.86
2019-03-04T19:43:17.037Z,8.87
2019-03-04T19:44:17.034Z,8.83
2019-03-04T19:45:17.037Z,8.76
2019-03-04T19:46:17.006Z,8.71
2019-03-04T19:48:26.727Z,8.71
2019-03-04T19:49:26.732Z,8.70
2019-03-04T19:50:26.702Z,8.74
2019-03-04T19:51:26.691Z,8.59
2019-03-04T19:52:26.683Z,8.58
2019-03-04T19:53:26.676Z,8.61
2019-03-04T19:54:26.716Z,8.63
2019-03-04T19:55:26.650Z,8.62
2019-03-04T19:56:26.639Z,8.58
2019-03-04T19:57:26.641Z,8.53
2019-03-04T19:58:26.622Z,8.58
2019-03-04T19:59:26.610Z,8.53
2019-03-04T20:00:26.619Z,8.50
2019-03-04T20:01:26.587Z,8.52
2019-03-04T20:02:26.583Z,8.43
2019-03-04T20:03:26.567Z,8.44
2019-03-04T20:04:26.559Z,8.40
2019-03-04T20:05:26.564Z,8.43
2019-03-04T20:06:26.540Z,8.37
2019-03-04T20:07:26.533Z,8.37
2019-03-04T20:08:26.517Z,8.44
2019-03-04T20:09:26.504Z,8.38
2019-03-04T20:10:26.517Z,8.43
2019-03-04T20:11:26.512Z,8.38
2019-03-04T20:12:28.057Z,8.33
2019-03-04T20:13:26.463Z,8.40
2019-03-04T20:14:26.455Z,8.37
2019-03-04T20:15:26.462Z,8.38
2019-03-04T20:16:26.431Z,8.50
2019-03-04T20:17:26.429Z,8.48
2019-03-04T20:18:26.417Z,8.52
2019-03-04T20:19:26.400Z,8.45
2019-03-04T20:20:26.414Z,8.50
2019-03-04T20:21:26.391Z,8.43
2019-03-04T20:22:26.371Z,8.52
2019-03-04T20:23:26.368Z,8.50
2019-03-04T20:24:26.353Z,8.50
2019-03-04T20:25:26.362Z,8.47
2019-03-04T20:26:26.331Z,8.44